Time;durP1;ratioP1;P1;durP2;ratioP2;P2;SDS_P1;SDS_P2;PMS_P1;PMS_P2;Temp;Humidity;BMP_temperature;BMP_pressure;BME280_temperature;BME280_humidity;BME280_pressure;Samples;Min_cycle;Max_cycle;Signal;HPM_P1;HPM_P2
2021/10/11 00:01:12;;;;;;;30.35;20.48;;;11.30;99.90;;;;;;6194533;23;20182;-92
2021/10/11 00:03:39;;;;;;;31.13;20.08;;;11.30;99.90;;;;;;6193076;23;20670;-88
2021/10/11 00:06:04;;;;;;;35.40;19.27;;;11.30;99.90;;;;;;6192304;23;20619;-87
2021/10/11 00:08:30;;;;;;;29.27;20.27;;;11.30;99.90;;;;;;6217940;23;20154;-93
2021/10/11 00:11:08;;;;;;;30.67;20.27;;;11.30;99.90;;;;;;6191621;23;20204;-92
2021/10/11 00:13:34;;;;;;;27.70;20.23;;;11.30;99.90;;;;;;6190459;23;20545;-88
2021/10/11 00:16:02;;;;;;;24.13;17.85;;;11.20;99.90;;;;;;6190467;23;20178;-88
2021/10/11 00:18:33;;;;;;;31.92;20.05;;;11.20;99.90;;;;;;6190032;23;20614;-93
2021/10/11 00:20:59;;;;;;;31.93;20.67;;;11.20;99.90;;;;;;6217427;23;20165;-93
2021/10/11 00:23:28;;;;;;;33.73;20.73;;;11.20;99.90;;;;;;6190979;23;20248;-87
2021/10/11 00:25:54;;;;;;;26.33;19.55;;;11.20;99.90;;;;;;6191285;23;20251;-88
2021/10/11 00:28:22;;;;;;;27.60;20.40;;;11.20;99.90;;;;;;6190656;23;20240;-87
2021/10/11 00:30:48;;;;;;;29.95;21.08;;;11.30;99.90;;;;;;6219370;23;20172;-87
2021/10/11 00:33:17;;;;;;;24.25;17.73;;;11.30;99.90;;;;;;6201179;23;20200;-93
2021/10/11 00:35:43;;;;;;;28.77;19.90;;;11.30;99.90;;;;;;6210339;23;20178;-93
2021/10/11 00:38:09;;;;;;;29.50;20.27;;;11.30;99.90;;;;;;6211623;23;20185;-87
2021/10/11 00:40:35;;;;;;;30.85;22.85;;;11.40;99.90;;;;;;6190175;23;20406;-93
2021/10/11 00:43:02;;;;;;;28.85;20.80;;;11.40;99.90;;;;;;6190774;23;20583;-86
2021/10/11 00:45:28;;;;;;;30.17;20.70;;;11.40;99.90;;;;;;6190397;23;20253;-93
2021/10/11 00:47:54;;;;;;;32.73;21.50;;;11.40;99.90;;;;;;6193219;23;20165;-93
2021/10/11 00:50:20;;;;;;;33.57;19.87;;;11.40;99.90;;;;;;6192102;23;20200;-93
2021/10/11 00:52:48;;;;;;;26.93;19.40;;;11.40;99.90;;;;;;6191936;23;20474;-92
2021/10/11 00:55:14;;;;;;;27.60;19.42;;;11.40;99.90;;;;;;6193292;23;20391;-93
2021/10/11 00:57:41;;;;;;;33.08;19.63;;;11.50;99.90;;;;;;6192584;23;20173;-93
2021/10/11 01:00:23;;;;;;;30.98;20.75;;;11.50;99.90;;;;;;6196885;23;20313;-88
2021/10/11 01:02:49;;;;;;;28.45;19.60;;;11.50;99.90;;;;;;6192282;23;20166;-94
2021/10/11 01:05:15;;;;;;;35.27;21.10;;;11.50;99.90;;;;;;6190367;23;20182;-94
2021/10/11 01:07:42;;;;;;;33.00;20.40;;;11.50;99.90;;;;;;6190704;23;20398;-94
2021/10/11 01:10:08;;;;;;;28.42;19.17;;;11.50;99.90;;;;;;6190654;23;20173;-94
2021/10/11 01:12:34;;;;;;;29.90;19.98;;;11.50;99.90;;;;;;6190953;23;20292;-93
2021/10/11 01:15:02;;;;;;;27.25;19.15;;;11.50;99.90;;;;;;6190407;23;20174;-87
2021/10/11 01:17:32;;;;;;;40.40;21.50;;;11.50;99.90;;;;;;6190412;23;20161;-88
2021/10/11 01:19:59;;;;;;;34.60;21.23;;;11.50;99.90;;;;;;6190634;23;20482;-87
2021/10/11 01:22:41;;;;;;;29.38;20.83;;;11.50;99.90;;;;;;6190209;23;20546;-93
2021/10/11 01:25:09;;;;;;;29.58;20.77;;;11.50;99.90;;;;;;6190863;23;20257;-93
2021/10/11 01:27:38;;;;;;;30.58;21.60;;;11.60;99.90;;;;;;6190430;23;20166;-88
2021/10/11 01:30:09;;;;;;;31.52;20.30;;;11.60;99.90;;;;;;6191246;23;20236;-87
2021/10/11 01:32:35;;;;;;;33.38;20.80;;;11.60;99.90;;;;;;6195432;23;20611;-93
2021/10/11 01:35:06;;;;;;;27.45;19.75;;;11.60;99.90;;;;;;6194623;23;20177;-88
2021/10/11 01:37:33;;;;;;;31.10;21.50;;;11.60;99.90;;;;;;6205259;23;20158;-88
2021/10/11 01:40:00;;;;;;;30.30;20.25;;;11.60;99.90;;;;;;6194275;23;20173;-93
2021/10/11 01:42:28;;;;;;;28.02;20.05;;;11.60;99.90;;;;;;6193543;23;20162;-88
2021/10/11 01:44:54;;;;;;;32.55;21.55;;;11.60;99.90;;;;;;6192414;23;20182;-88
2021/10/11 01:47:23;;;;;;;33.50;20.95;;;11.60;99.90;;;;;;6192824;23;20492;-92
2021/10/11 01:50:05;;;;;;;29.35;20.25;;;11.60;99.90;;;;;;6218747;23;20627;-87
2021/10/11 01:52:32;;;;;;;28.75;19.13;;;11.50;99.90;;;;;;6192692;23;20245;-93
2021/10/11 01:54:59;;;;;;;28.25;18.42;;;11.50;99.90;;;;;;6192176;23;20510;-93
2021/10/11 01:57:26;;;;;;;28.33;18.05;;;11.50;99.90;;;;;;6191918;23;20188;-93
2021/10/11 01:59:53;;;;;;;32.85;19.80;;;11.50;99.90;;;;;;6192687;23;20178;-88
2021/10/11 02:02:22;;;;;;;26.98;19.38;;;11.50;99.90;;;;;;6192032;23;20158;-88
2021/10/11 02:04:48;;;;;;;27.10;18.23;;;11.50;99.90;;;;;;6191770;23;20200;-93
2021/10/11 02:07:17;;;;;;;29.23;19.53;;;11.50;99.90;;;;;;6192162;23;20161;-88
2021/10/11 02:09:44;;;;;;;25.60;18.80;;;11.50;99.90;;;;;;6192230;23;20207;-88
2021/10/11 02:12:12;;;;;;;28.67;19.77;;;11.50;99.90;;;;;;6192001;23;20489;-89
2021/10/11 02:14:39;;;;;;;30.73;20.23;;;11.60;99.90;;;;;;6232554;23;20196;-88
2021/10/11 02:17:04;;;;;;;29.38;18.95;;;11.60;99.90;;;;;;6219520;23;20150;-93
2021/10/11 02:19:32;;;;;;;27.90;19.10;;;11.60;99.90;;;;;;6193647;23;20186;-88
2021/10/11 02:21:58;;;;;;;23.55;17.95;;;11.60;99.90;;;;;;6192109;23;20170;-93
2021/10/11 02:24:24;;;;;;;27.73;19.80;;;11.70;99.90;;;;;;6192204;23;20178;-93
2021/10/11 02:26:51;;;;;;;25.58;19.05;;;11.70;99.90;;;;;;6191876;23;20162;-92
2021/10/11 02:29:17;;;;;;;31.05;19.35;;;11.70;99.90;;;;;;6193234;23;20216;-88
2021/10/11 02:31:43;;;;;;;34.70;18.67;;;11.60;99.90;;;;;;6191639;23;20165;-88
2021/10/11 02:34:09;;;;;;;30.17;19.73;;;11.60;99.90;;;;;;6191740;23;20655;-93
2021/10/11 02:36:38;;;;;;;26.45;19.30;;;11.70;99.90;;;;;;6192651;23;20154;-87
2021/10/11 02:39:05;;;;;;;26.45;17.60;;;11.60;99.90;;;;;;6219966;23;20162;-88
2021/10/11 02:41:31;;;;;;;24.75;18.20;;;11.70;99.90;;;;;;6193593;23;20162;-93
2021/10/11 02:44:05;;;;;;;29.37;19.20;;;11.70;99.90;;;;;;6218452;23;20249;-89
2021/10/11 02:46:31;;;;;;;29.05;18.83;;;11.60;99.90;;;;;;6191318;23;20674;-94
2021/10/11 02:49:00;;;;;;;29.80;19.00;;;11.70;99.90;;;;;;6191551;23;20201;-88
2021/10/11 02:51:25;;;;;;;28.73;17.90;;;11.70;99.90;;;;;;6191824;23;20161;-87
2021/10/11 02:53:52;;;;;;;26.50;18.47;;;11.60;99.90;;;;;;6192324;23;20201;-93
2021/10/11 02:56:19;;;;;;;24.85;18.05;;;11.60;99.90;;;;;;6225296;23;20197;-93
2021/10/11 02:58:46;;;;;;;26.17;18.30;;;11.70;99.90;;;;;;6209384;23;20153;-89
2021/10/11 03:01:14;;;;;;;31.17;18.52;;;11.60;99.90;;;;;;6215884;23;20188;-93
2021/10/11 03:03:40;;;;;;;27.52;17.92;;;11.60;99.90;;;;;;6196138;23;20154;-93
2021/10/11 03:06:06;;;;;;;25.77;18.20;;;11.60;99.90;;;;;;6191824;23;20227;-93
2021/10/11 03:08:36;;;;;;;24.58;18.25;;;11.60;99.90;;;;;;6191916;23;20359;-93
2021/10/11 03:11:04;;;;;;;27.13;18.35;;;11.60;99.90;;;;;;6191165;23;20239;-94
2021/10/11 03:13:32;;;;;;;24.40;17.25;;;11.70;99.90;;;;;;6190856;23;20201;-88
2021/10/11 03:16:00;;;;;;;27.98;17.95;;;11.60;99.90;;;;;;6191761;23;20192;-88
2021/10/11 03:18:26;;;;;;;29.13;19.10;;;11.70;99.90;;;;;;6191706;23;20165;-88
2021/10/11 03:20:54;;;;;;;28.90;19.58;;;11.70;99.90;;;;;;6191385;23;20193;-89
2021/10/11 03:23:20;;;;;;;25.08;17.65;;;11.70;99.90;;;;;;6190845;23;20532;-93
2021/10/11 03:25:51;;;;;;;22.37;18.00;;;11.70;99.90;;;;;;6191139;23;20185;-91
2021/10/11 03:28:17;;;;;;;30.10;18.80;;;11.60;99.90;;;;;;6191943;23;20154;-93
2021/10/11 03:30:43;;;;;;;26.40;18.03;;;11.60;99.90;;;;;;6191926;23;20541;-93
2021/10/11 03:33:09;;;;;;;26.43;18.77;;;11.70;99.90;;;;;;6191357;23;20214;-92
2021/10/11 03:35:35;;;;;;;28.27;18.67;;;11.70;99.90;;;;;;6206579;23;20185;-92
2021/10/11 03:38:03;;;;;;;28.95;17.77;;;11.60;99.90;;;;;;6213880;23;20161;-88
2021/10/11 03:40:31;;;;;;;24.35;17.98;;;11.60;99.90;;;;;;6208361;23;20174;-88
2021/10/11 03:42:57;;;;;;;33.15;18.73;;;11.50;99.90;;;;;;6212688;23;20161;-89
2021/10/11 03:45:24;;;;;;;32.58;19.60;;;11.50;99.90;;;;;;6197825;23;20190;-94
2021/10/11 03:47:50;;;;;;;26.17;17.08;;;11.50;99.90;;;;;;6190920;23;20157;-93
2021/10/11 03:50:17;;;;;;;28.57;18.73;;;11.60;99.90;;;;;;6191061;23;20186;-88
2021/10/11 03:52:43;;;;;;;26.23;20.05;;;11.60;99.90;;;;;;6190938;23;20201;-88
2021/10/11 03:55:11;;;;;;;27.13;18.60;;;11.60;99.90;;;;;;6190787;23;20182;-88
2021/10/11 03:57:36;;;;;;;42.67;28.05;;;11.60;99.90;;;;;;6190628;23;20154;-94
2021/10/11 04:00:04;;;;;;;39.33;24.70;;;11.60;99.90;;;;;;6190901;23;20196;-93
2021/10/11 04:02:30;;;;;;;29.27;19.10;;;11.60;99.90;;;;;;6191269;23;20643;-93
2021/10/11 04:04:56;;;;;;;30.50;17.88;;;11.60;99.90;;;;;;6191065;23;20235;-90
2021/10/11 04:07:39;;;;;;;27.65;18.98;;;11.60;99.90;;;;;;6190963;23;20583;-89
2021/10/11 04:10:07;;;;;;;28.08;18.30;;;11.60;99.90;;;;;;6190443;23;20209;-88
2021/10/11 04:12:34;;;;;;;25.23;19.27;;;11.60;99.90;;;;;;6185427;23;20202;-88
2021/10/11 04:15:01;;;;;;;24.80;18.13;;;11.60;99.90;;;;;;6186178;23;20182;-88
2021/10/11 04:17:28;;;;;;;28.50;19.30;;;11.60;99.90;;;;;;6186601;23;20161;-88
2021/10/11 04:19:55;;;;;;;26.67;19.08;;;11.60;99.90;;;;;;6185280;23;20224;-88
2021/10/11 04:22:24;;;;;;;27.60;18.48;;;11.60;99.90;;;;;;6186119;23;20166;-92
2021/10/11 04:24:50;;;;;;;22.70;18.20;;;11.70;99.90;;;;;;6185530;23;20193;-88
2021/10/11 04:27:16;;;;;;;34.00;18.23;;;11.60;99.90;;;;;;6185861;23;20596;-88
2021/10/11 04:29:42;;;;;;;30.80;18.93;;;11.70;99.90;;;;;;6185659;23;20193;-94
2021/10/11 04:32:11;;;;;;;23.57;16.70;;;11.70;99.90;;;;;;6186527;23;20237;-93
2021/10/11 04:34:37;;;;;;;27.58;19.45;;;11.70;99.90;;;;;;6186104;23;20237;-93
2021/10/11 04:37:04;;;;;;;27.90;18.57;;;11.70;99.90;;;;;;6186171;23;20158;-90
2021/10/11 04:39:29;;;;;;;30.73;19.27;;;11.70;99.90;;;;;;6188075;23;20182;-93
2021/10/11 04:41:56;;;;;;;29.90;18.40;;;11.70;99.90;;;;;;6209631;23;20155;-91
2021/10/11 04:44:22;;;;;;;26.75;18.30;;;11.70;99.90;;;;;;6188188;23;20424;-91
2021/10/11 04:46:49;;;;;;;21.47;16.60;;;11.60;99.90;;;;;;6188507;23;20163;-88
2021/10/11 04:49:15;;;;;;;27.02;18.33;;;11.60;99.90;;;;;;6185236;23;20170;-87
2021/10/11 04:51:41;;;;;;;37.77;18.53;;;11.70;99.90;;;;;;6185333;23;20489;-87
2021/10/11 04:54:07;;;;;;;24.08;16.98;;;11.70;99.90;;;;;;6185479;23;20429;-92
2021/10/11 04:56:37;;;;;;;26.60;17.30;;;11.70;99.90;;;;;;6186320;23;20155;-91
2021/10/11 04:59:04;;;;;;;24.35;17.15;;;11.70;99.90;;;;;;6184796;23;20401;-87
2021/10/11 05:01:31;;;;;;;25.58;16.65;;;11.80;99.90;;;;;;6185520;23;20653;-87
2021/10/11 05:03:57;;;;;;;26.00;20.30;;;11.80;99.90;;;;;;6184783;23;20171;-87
2021/10/11 05:06:24;;;;;;;26.80;19.90;;;11.80;99.90;;;;;;6185106;23;20262;-91
2021/10/11 05:08:50;;;;;;;22.60;17.58;;;11.80;99.90;;;;;;6187425;23;20163;-93
2021/10/11 05:11:16;;;;;;;28.20;16.77;;;11.90;99.90;;;;;;6187170;23;20200;-94
2021/10/11 05:13:42;;;;;;;27.33;16.53;;;11.90;99.90;;;;;;6187365;23;20210;-93
2021/10/11 05:16:12;;;;;;;25.08;16.08;;;11.90;99.90;;;;;;6187563;23;20408;-87
2021/10/11 05:18:38;;;;;;;23.10;16.90;;;11.90;99.90;;;;;;6188268;23;20592;-93
2021/10/11 05:21:08;;;;;;;27.00;17.60;;;11.90;99.90;;;;;;6188124;23;20190;-88
2021/10/11 05:23:34;;;;;;;24.23;18.10;;;11.90;99.90;;;;;;6186282;23;20552;-93
2021/10/11 05:26:00;;;;;;;27.80;17.53;;;11.90;99.90;;;;;;6188755;23;20221;-94
2021/10/11 05:28:26;;;;;;;28.70;18.00;;;12.00;99.90;;;;;;6207152;23;20399;-92
2021/10/11 05:30:54;;;;;;;24.17;18.40;;;12.00;99.90;;;;;;6196209;23;20198;-88
2021/10/11 05:33:22;;;;;;;32.15;17.52;;;12.00;99.90;;;;;;6195831;23;20198;-93
2021/10/11 05:35:48;;;;;;;30.88;19.33;;;12.00;99.90;;;;;;6189355;23;20253;-93
2021/10/11 05:38:15;;;;;;;32.65;18.77;;;11.90;99.90;;;;;;6186825;23;20242;-93
2021/10/11 05:40:44;;;;;;;24.58;17.05;;;11.90;99.90;;;;;;6187102;23;20555;-87
2021/10/11 05:43:11;;;;;;;27.83;19.05;;;11.80;99.90;;;;;;6187438;23;20193;-88
2021/10/11 05:45:37;;;;;;;29.98;19.25;;;11.80;99.90;;;;;;6186734;23;20174;-87
2021/10/11 05:48:04;;;;;;;28.02;18.85;;;11.80;99.90;;;;;;6184857;23;20159;-89
2021/10/11 05:50:30;;;;;;;23.83;16.98;;;11.80;99.90;;;;;;6184797;23;20257;-87
2021/10/11 05:52:59;;;;;;;25.15;17.85;;;11.70;99.90;;;;;;6187206;23;20191;-87
2021/10/11 05:55:26;;;;;;;24.50;16.67;;;11.70;99.90;;;;;;6186671;23;20618;-93
2021/10/11 05:57:53;;;;;;;23.15;16.55;;;11.70;99.90;;;;;;6185544;23;20166;-88
2021/10/11 06:00:20;;;;;;;26.15;17.17;;;11.70;99.90;;;;;;6186711;23;20182;-88
2021/10/11 06:02:48;;;;;;;29.48;18.40;;;11.70;99.90;;;;;;6187224;23;20190;-87
2021/10/11 06:05:14;;;;;;;24.52;17.77;;;11.70;99.90;;;;;;6187105;23;20186;-94
2021/10/11 06:07:42;;;;;;;26.13;16.47;;;11.70;99.90;;;;;;6186716;23;20200;-87
2021/10/11 06:10:09;;;;;;;23.52;17.67;;;11.70;99.90;;;;;;6184321;23;20430;-93
2021/10/11 06:12:35;;;;;;;23.85;17.75;;;11.70;99.90;;;;;;6185909;23;20225;-93
2021/10/11 06:15:01;;;;;;;28.75;19.65;;;11.70;99.90;;;;;;6185932;23;20186;-91
2021/10/11 06:17:28;;;;;;;28.57;20.00;;;11.70;99.90;;;;;;6201594;23;20159;-92
2021/10/11 06:19:54;;;;;;;24.85;19.05;;;11.70;99.90;;;;;;6186935;23;20419;-87
2021/10/11 06:22:21;;;;;;;23.80;17.15;;;11.80;99.90;;;;;;6185736;23;20151;-92
2021/10/11 06:24:48;;;;;;;24.98;16.55;;;11.70;99.90;;;;;;6186682;23;20762;-92
2021/10/11 06:27:15;;;;;;;23.08;15.35;;;11.70;99.90;;;;;;6188116;23;20277;-91
2021/10/11 06:29:41;;;;;;;24.38;16.88;;;11.80;99.90;;;;;;6185869;23;20574;-87
2021/10/11 06:32:07;;;;;;;24.30;15.17;;;11.70;99.90;;;;;;6186534;23;20159;-91
2021/10/11 06:34:32;;;;;;;23.52;14.50;;;11.70;99.90;;;;;;6184179;23;20237;-92
2021/10/11 06:36:59;;;;;;;25.87;16.23;;;11.80;99.90;;;;;;6184814;23;20158;-91
2021/10/11 06:39:25;;;;;;;21.13;14.40;;;11.80;99.90;;;;;;6187507;23;20477;-88
2021/10/11 06:41:51;;;;;;;19.93;15.00;;;11.80;99.90;;;;;;6186287;23;20205;-88
2021/10/11 06:44:18;;;;;;;19.30;13.75;;;11.80;99.90;;;;;;6189497;23;20407;-88
2021/10/11 06:46:45;;;;;;;22.85;14.70;;;11.80;99.90;;;;;;6188121;23;20581;-91
2021/10/11 06:49:13;;;;;;;22.13;14.40;;;11.80;99.90;;;;;;6186139;23;20584;-92
2021/10/11 06:51:40;;;;;;;21.98;14.68;;;11.80;99.90;;;;;;6187623;23;20167;-88
2021/10/11 06:54:06;;;;;;;30.75;17.98;;;11.80;99.90;;;;;;6184621;23;20202;-88
2021/10/11 06:56:32;;;;;;;34.55;18.33;;;11.80;99.90;;;;;;6205980;23;20138;-90
2021/10/11 06:58:59;;;;;;;27.80;18.50;;;11.80;99.90;;;;;;6197493;23;20166;-87
2021/10/11 07:01:28;;;;;;;27.63;17.80;;;11.80;99.90;;;;;;6200695;23;20198;-88
2021/10/11 07:03:56;;;;;;;31.95;17.83;;;11.80;99.90;;;;;;6199520;23;20162;-87
2021/10/11 07:06:23;;;;;;;23.98;16.65;;;11.70;99.90;;;;;;6199117;23;20182;-91
2021/10/11 07:08:51;;;;;;;20.15;13.95;;;11.70;99.90;;;;;;6185342;23;20186;-88
2021/10/11 07:11:20;;;;;;;20.33;14.40;;;11.70;99.90;;;;;;6187237;23;20167;-88
2021/10/11 07:13:46;;;;;;;23.40;14.25;;;11.70;99.90;;;;;;6184761;23;20261;-87
2021/10/11 07:16:12;;;;;;;24.97;16.17;;;11.70;99.90;;;;;;6185014;23;20186;-88
2021/10/11 07:18:39;;;;;;;20.83;14.70;;;11.70;99.90;;;;;;6185832;23;20438;-87
2021/10/11 07:21:07;;;;;;;24.25;14.50;;;11.70;99.90;;;;;;6186225;23;20192;-87
2021/10/11 07:23:34;;;;;;;19.55;13.38;;;11.80;99.90;;;;;;6185432;23;20181;-88
2021/10/11 07:26:02;;;;;;;19.58;13.80;;;11.70;99.90;;;;;;6186338;23;20182;-87
2021/10/11 07:28:29;;;;;;;21.67;14.43;;;11.70;99.90;;;;;;6183787;23;20163;-91
2021/10/11 07:30:55;;;;;;;26.42;17.67;;;11.70;99.90;;;;;;6182377;23;20192;-92
2021/10/11 07:33:24;;;;;;;20.33;17.50;;;11.70;99.90;;;;;;6184355;23;20229;-86
2021/10/11 07:35:51;;;;;;;22.55;17.25;;;11.80;99.90;;;;;;6181620;23;20428;-92
2021/10/11 07:38:18;;;;;;;19.60;15.02;;;11.80;99.90;;;;;;6181217;23;20159;-87
2021/10/11 07:40:45;;;;;;;22.92;15.85;;;11.80;99.90;;;;;;6189808;23;20531;-87
2021/10/11 07:43:12;;;;;;;24.90;17.42;;;11.80;99.90;;;;;;6180218;23;20159;-87
2021/10/11 07:45:39;;;;;;;19.48;14.13;;;11.80;99.90;;;;;;6181403;23;20174;-87
2021/10/11 07:48:04;;;;;;;19.27;13.63;;;11.80;99.90;;;;;;6181354;23;20489;-87
2021/10/11 07:50:30;;;;;;;19.60;13.23;;;11.80;99.90;;;;;;6178341;23;20182;-91
2021/10/11 07:52:57;;;;;;;19.20;14.00;;;11.80;99.90;;;;;;6180370;23;20398;-87
2021/10/11 07:55:23;;;;;;;23.13;12.95;;;11.80;99.90;;;;;;6181607;23;20178;-91
2021/10/11 07:57:49;;;;;;;24.17;15.52;;;11.80;99.90;;;;;;6179939;23;20169;-87
2021/10/11 08:00:20;;;;;;;17.17;12.20;;;11.90;99.90;;;;;;6179668;23;20720;-88
2021/10/11 08:02:47;;;;;;;21.23;14.50;;;11.90;99.90;;;;;;6184576;23;20376;-87
2021/10/11 08:05:15;;;;;;;22.95;13.68;;;11.90;99.90;;;;;;6186783;23;20183;-87
2021/10/11 08:07:42;;;;;;;18.98;12.90;;;11.90;99.90;;;;;;6194092;23;20643;-92
2021/10/11 08:10:11;;;;;;;20.30;12.30;;;12.00;99.90;;;;;;6184976;23;20547;-93
2021/10/11 08:12:38;;;;;;;19.38;12.25;;;12.00;99.90;;;;;;6186589;23;20268;-87
2021/10/11 08:15:06;;;;;;;18.88;12.60;;;11.90;99.90;;;;;;6185848;23;20187;-87
2021/10/11 08:17:33;;;;;;;20.00;12.85;;;12.00;99.90;;;;;;6182443;23;20443;-90
2021/10/11 08:19:58;;;;;;;17.17;13.13;;;12.00;99.90;;;;;;6183413;23;20186;-91
2021/10/11 08:22:25;;;;;;;19.07;13.07;;;12.00;99.90;;;;;;6184711;23;20166;-91
2021/10/11 08:24:51;;;;;;;16.30;11.33;;;12.00;99.90;;;;;;6182220;23;20418;-88
2021/10/11 08:27:20;;;;;;;18.65;12.93;;;12.00;99.90;;;;;;6184143;23;20154;-88
2021/10/11 08:29:52;;;;;;;26.27;12.52;;;12.10;99.90;;;;;;6193047;23;20325;-92
2021/10/11 08:32:19;;;;;;;24.58;13.85;;;12.10;99.90;;;;;;6186108;23;20162;-92
2021/10/11 08:34:46;;;;;;;15.98;12.93;;;12.10;99.90;;;;;;6182949;23;20206;-87
2021/10/11 08:37:12;;;;;;;17.13;12.93;;;12.20;99.90;;;;;;6183420;23;20158;-87
2021/10/11 08:39:39;;;;;;;22.20;13.73;;;12.20;99.90;;;;;;6184596;23;20229;-87
2021/10/11 08:42:05;;;;;;;28.38;12.40;;;12.20;99.90;;;;;;6185390;23;20217;-92
2021/10/11 08:44:31;;;;;;;18.47;12.47;;;12.20;99.90;;;;;;6184667;23;20179;-91
2021/10/11 08:46:59;;;;;;;17.92;11.95;;;12.20;99.90;;;;;;6189305;23;20175;-87
2021/10/11 08:49:26;;;;;;;16.90;11.40;;;12.20;99.90;;;;;;6187357;23;20253;-92
2021/10/11 08:51:52;;;;;;;17.08;11.77;;;12.30;99.90;;;;;;6184340;23;20671;-87
2021/10/11 08:54:19;;;;;;;20.50;13.52;;;12.30;99.90;;;;;;6172828;23;20208;-92
2021/10/11 08:56:46;;;;;;;19.60;12.82;;;12.30;99.90;;;;;;6182738;23;20216;-91
2021/10/11 08:59:14;;;;;;;19.15;11.77;;;12.30;99.90;;;;;;6180953;23;20166;-87
2021/10/11 09:01:40;;;;;;;20.20;13.63;;;12.40;99.90;;;;;;6183337;23;20158;-92
2021/10/11 09:04:27;;;;;;;15.93;11.80;;;12.40;99.90;;;;;;6183143;23;20162;-92
2021/10/11 09:07:06;;;;;;;19.95;13.88;;;12.40;99.90;;;;;;6182387;23;20154;-86
2021/10/11 09:09:44;;;;;;;20.52;13.05;;;12.40;99.90;;;;;;6152222;23;20199;-92
2021/10/11 09:12:36;;;;;;;18.53;12.80;;;12.40;99.90;;;;;;6156709;23;20178;-91
2021/10/11 09:15:06;;;;;;;20.60;15.23;;;12.50;99.90;;;;;;6179717;23;20867;-87
2021/10/11 09:17:37;;;;;;;20.67;13.35;;;12.50;99.90;;;;;;6181995;23;20147;-88
2021/10/11 09:20:16;;;;;;;19.30;12.27;;;12.60;99.90;;;;;;6169289;23;20523;-92
2021/10/11 09:22:44;;;;;;;15.48;12.13;;;12.60;99.90;;;;;;6153292;23;20169;-87
2021/10/11 09:25:12;;;;;;;19.33;12.05;;;12.60;99.90;;;;;;6155138;23;20289;-88
2021/10/11 09:27:49;;;;;;;17.67;12.77;;;12.60;99.90;;;;;;6155668;23;20190;-87
2021/10/11 09:30:18;;;;;;;17.80;12.90;;;12.60;99.90;;;;;;6154016;23;20482;-92
2021/10/11 09:32:47;;;;;;;23.08;12.95;;;12.70;99.90;;;;;;6153636;23;20933;-87
2021/10/11 09:35:16;;;;;;;19.77;12.68;;;12.70;99.90;;;;;;6154119;23;20186;-92
2021/10/11 09:37:50;;;;;;;18.85;13.45;;;12.70;99.90;;;;;;6158429;23;20170;-87
2021/10/11 09:40:22;;;;;;;19.57;13.43;;;12.80;99.90;;;;;;6159899;23;20187;-91
2021/10/11 09:42:48;;;;;;;17.38;13.27;;;12.80;99.90;;;;;;6155676;23;20460;-92
2021/10/11 09:45:15;;;;;;;19.43;12.90;;;12.80;99.90;;;;;;6181624;23;20504;-87
2021/10/11 09:47:46;;;;;;;21.93;13.73;;;12.80;99.90;;;;;;6156003;23;20389;-87
2021/10/11 09:50:14;;;;;;;28.67;16.48;;;12.80;99.90;;;;;;6156344;23;20434;-91
2021/10/11 09:52:43;;;;;;;29.85;18.73;;;12.80;99.90;;;;;;6168737;23;20169;-88
2021/10/11 09:55:12;;;;;;;25.08;21.45;;;12.80;99.90;;;;;;6162648;23;20209;-87
2021/10/11 09:57:38;;;;;;;20.13;13.98;;;12.80;99.90;;;;;;6168433;23;20244;-93
2021/10/11 10:00:11;;;;;;;20.73;14.15;;;12.80;99.90;;;;;;6160124;23;20186;-93
2021/10/11 10:02:40;;;;;;;20.98;16.90;;;12.80;99.90;;;;;;6159977;23;20150;-93
2021/10/11 10:05:12;;;;;;;21.60;12.85;;;12.80;99.90;;;;;;6161952;23;20254;-93
2021/10/11 10:07:43;;;;;;;19.57;13.30;;;12.80;99.90;;;;;;6161854;23;20150;-93
2021/10/11 10:10:11;;;;;;;15.75;12.20;;;12.80;99.90;;;;;;6161851;23;20419;-93
2021/10/11 10:12:47;;;;;;;17.65;12.95;;;12.80;99.90;;;;;;6160160;23;20197;-93
2021/10/11 10:15:36;;;;;;;15.93;11.65;;;12.80;99.90;;;;;;6160221;23;20274;-87
2021/10/11 10:18:06;;;;;;;17.20;13.05;;;12.80;99.90;;;;;;6159774;23;20154;-87
2021/10/11 10:20:34;;;;;;;18.52;12.73;;;12.80;99.90;;;;;;6159310;23;20212;-87
2021/10/11 10:23:00;;;;;;;16.83;13.50;;;12.80;99.90;;;;;;6160041;23;20166;-88
2021/10/11 10:25:27;;;;;;;17.03;12.47;;;12.90;99.90;;;;;;6159968;23;20420;-93
2021/10/11 10:28:07;;;;;;;13.67;12.00;;;12.90;99.90;;;;;;6162156;23;20430;-93
2021/10/11 10:30:35;;;;;;;19.83;13.05;;;12.90;99.90;;;;;;6161006;23;20416;-88
2021/10/11 10:33:03;;;;;;;15.33;13.07;;;12.90;99.90;;;;;;6162036;23;20186;-88
2021/10/11 10:35:34;;;;;;;19.97;13.33;;;12.90;99.90;;;;;;6177125;23;20424;-88
2021/10/11 10:38:00;;;;;;;17.70;13.07;;;12.90;99.90;;;;;;6164206;23;20748;-87
2021/10/11 10:40:32;;;;;;;19.97;13.10;;;12.90;99.90;;;;;;6165363;23;20186;-87
2021/10/11 10:43:09;;;;;;;19.48;12.82;;;12.90;99.90;;;;;;6160696;23;20363;-93
2021/10/11 10:45:38;;;;;;;17.50;14.33;;;12.90;99.90;;;;;;6158275;23;20181;-88
2021/10/11 10:48:25;;;;;;;19.38;13.52;;;12.90;99.90;;;;;;6155232;23;20881;-93
2021/10/11 10:51:02;;;;;;;17.80;12.70;;;12.90;99.90;;;;;;6155491;23;20256;-93
2021/10/11 10:53:30;;;;;;;17.38;13.02;;;12.90;99.90;;;;;;6157588;23;20442;-87
2021/10/11 10:55:57;;;;;;;14.73;12.67;;;12.90;99.90;;;;;;6157955;23;20190;-87
2021/10/11 10:58:23;;;;;;;20.30;13.73;;;12.90;99.90;;;;;;6183133;23;20355;-92
2021/10/11 11:00:49;;;;;;;19.70;12.33;;;12.90;99.90;;;;;;6155748;23;20424;-93
2021/10/11 11:03:19;;;;;;;17.57;13.13;;;12.90;99.90;;;;;;6157318;23;20403;-92
2021/10/11 11:05:51;;;;;;;19.58;12.40;;;12.90;99.90;;;;;;6158278;23;20460;-93
2021/10/11 11:08:23;;;;;;;21.53;12.80;;;12.90;99.90;;;;;;6156505;23;20147;-87
2021/10/11 11:10:51;;;;;;;19.90;12.30;;;13.00;99.90;;;;;;6156167;23;20419;-87
2021/10/11 11:13:17;;;;;;;19.83;13.73;;;13.00;99.90;;;;;;6156966;23;20786;-93
2021/10/11 11:15:54;;;;;;;21.97;13.70;;;13.00;99.90;;;;;;6159245;23;20416;-87
2021/10/11 11:18:23;;;;;;;18.37;12.70;;;13.00;99.90;;;;;;6186612;23;20138;-87
2021/10/11 11:20:50;;;;;;;15.60;11.60;;;13.00;99.90;;;;;;6158922;23;20793;-93
2021/10/11 11:23:25;;;;;;;20.93;13.33;;;13.00;99.90;;;;;;6157163;23;20384;-87
2021/10/11 11:25:56;;;;;;;19.83;13.18;;;13.00;99.90;;;;;;6155824;23;20431;-87
2021/10/11 11:28:25;;;;;;;15.50;12.73;;;13.00;99.90;;;;;;6155504;23;20620;-93
2021/10/11 11:30:53;;;;;;;18.43;13.00;;;13.00;99.90;;;;;;6162736;23;20189;-93
2021/10/11 11:33:22;;;;;;;20.43;14.00;;;13.10;99.90;;;;;;6165965;23;20432;-86
2021/10/11 11:35:54;;;;;;;17.80;12.80;;;13.10;99.90;;;;;;6155728;23;20506;-87
2021/10/11 11:38:22;;;;;;;19.43;12.50;;;13.10;99.90;;;;;;6151878;23;20493;-92
2021/10/11 11:40:51;;;;;;;20.63;13.30;;;13.10;99.90;;;;;;6155853;23;20761;-87
2021/10/11 11:43:18;;;;;;;18.23;12.73;;;13.20;99.90;;;;;;6156457;23;20363;-92
2021/10/11 11:45:48;;;;;;;18.53;12.50;;;13.20;99.90;;;;;;6155717;23;20433;-87
2021/10/11 11:48:24;;;;;;;19.10;13.63;;;13.20;99.90;;;;;;6153109;23;20396;-86
2021/10/11 11:51:11;;;;;;;18.33;12.50;;;13.20;99.90;;;;;;6155917;23;20443;-87
2021/10/11 11:53:43;;;;;;;23.93;13.13;;;13.20;99.90;;;;;;6166250;23;20486;-93
2021/10/11 11:56:13;;;;;;;16.63;12.20;;;13.30;99.90;;;;;;6181837;23;20578;-94
2021/10/11 11:58:43;;;;;;;15.30;12.00;;;13.30;99.90;;;;;;6154393;23;20389;-92
2021/10/11 12:01:15;;;;;;;18.53;13.40;;;13.30;99.90;;;;;;6155231;23;20781;-94
2021/10/11 12:03:50;;;;;;;17.77;12.90;;;13.20;99.90;;;;;;6157109;23;20384;-87
2021/10/11 12:06:18;;;;;;;16.83;12.30;;;13.20;99.90;;;;;;6156898;23;20404;-87
2021/10/11 12:08:46;;;;;;;19.07;12.40;;;13.30;99.90;;;;;;6156980;23;20455;-87
2021/10/11 12:11:13;;;;;;;19.63;14.03;;;13.30;99.90;;;;;;6184790;23;20407;-91
2021/10/11 12:13:43;;;;;;;23.20;14.17;;;13.30;99.90;;;;;;6156613;23;20952;-87
2021/10/11 12:16:14;;;;;;;23.17;13.37;;;13.30;99.90;;;;;;6167987;23;20408;-93
2021/10/11 12:18:46;;;;;;;20.30;14.00;;;13.30;99.90;;;;;;6154281;23;20923;-92
2021/10/11 12:21:35;;;;;;;23.63;12.23;;;13.40;99.90;;;;;;6155569;23;20421;-87
2021/10/11 12:24:08;;;;;;;18.07;12.17;;;13.40;99.90;;;;;;6155599;23;20396;-87
2021/10/11 12:27:14;;;;;;;19.03;14.23;;;13.40;99.90;;;;;;6153984;23;20389;-87
2021/10/11 12:29:48;;;;;;;19.37;14.07;;;13.40;99.90;;;;;;6148627;23;20829;-87
2021/10/11 12:32:14;;;;;;;23.40;16.03;;;13.40;99.90;;;;;;6147850;23;20772;-87
2021/10/11 12:34:46;;;;;;;30.23;23.80;;;13.40;99.90;;;;;;6173895;23;20480;-87